Time;durP1;ratioP1;P1;durP2;ratioP2;P2;SDS_P1;SDS_P2;PMS_P1;PMS_P2;Temp;Humidity;BMP_temperature;BMP_pressure;BME280_temperature;BME280_humidity;BME280_pressure;Samples;Min_cycle;Max_cycle;Signal;HPM_P1;HPM_P2
2023/05/26 00:00:12;;;;;;;9.30;5.77;;;;;;;;;;5080332;28;20221;-74
2023/05/26 00:02:39;;;;;;;7.07;5.70;;;;;;;;;;5077291;28;20191;-74
2023/05/26 00:05:07;;;;;;;7.73;5.80;;;;;;;;;;5074646;28;20668;-74
2023/05/26 00:07:34;;;;;;;8.80;5.37;;;;;;;;;;5080043;28;20275;-73
2023/05/26 00:10:01;;;;;;;8.47;6.00;;;;;;;;;;5061822;28;20302;-73
2023/05/26 00:12:28;;;;;;;8.23;6.03;;;;;;;;;;5075930;28;20184;-74
2023/05/26 00:14:57;;;;;;;11.80;5.97;;;;;;;;;;5084112;28;20577;-74
2023/05/26 00:17:24;;;;;;;7.40;5.70;;;;;;;;;;5077438;28;20206;-74
2023/05/26 00:19:54;;;;;;;9.83;6.23;;;;;;;;;;5080274;28;20680;-73
2023/05/26 00:22:21;;;;;;;7.63;5.93;;;;;;;;;;5077424;28;20184;-74
2023/05/26 00:24:48;;;;;;;8.73;6.33;;;;;;;;;;5076268;28;20195;-74
2023/05/26 00:27:15;;;;;;;8.37;6.37;;;;;;;;;;5080992;28;20227;-74
2023/05/26 00:29:42;;;;;;;8.60;6.13;;;;;;;;;;5081032;28;20185;-74
2023/05/26 00:32:09;;;;;;;9.03;6.73;;;;;;;;;;5060781;28;20240;-73
2023/05/26 00:34:40;;;;;;;8.90;7.13;;;;;;;;;;5076776;28;20271;-74
2023/05/26 00:37:07;;;;;;;9.23;6.07;;;;;;;;;;5057839;28;20191;-73
2023/05/26 00:39:36;;;;;;;8.80;6.83;;;;;;;;;;5061618;28;20208;-73
2023/05/26 00:42:09;;;;;;;11.47;7.30;;;;;;;;;;5078406;28;20200;-73
2023/05/26 00:44:38;;;;;;;11.27;7.50;;;;;;;;;;5078581;28;20198;-73
2023/05/26 00:47:05;;;;;;;6.70;6.00;;;;;;;;;;5078484;28;20202;-76
2023/05/26 00:49:32;;;;;;;9.27;6.33;;;;;;;;;;5076555;28;20291;-76
2023/05/26 00:52:02;;;;;;;8.63;6.53;;;;;;;;;;5093467;28;20224;-73
2023/05/26 00:54:32;;;;;;;8.60;6.27;;;;;;;;;;5085594;28;20184;-73
2023/05/26 00:57:03;;;;;;;11.47;6.43;;;;;;;;;;5078186;28;20504;-74
2023/05/26 00:59:32;;;;;;;8.37;6.30;;;;;;;;;;5075951;28;20220;-73
2023/05/26 01:02:00;;;;;;;10.23;6.57;;;;;;;;;;5067580;28;20288;-74
2023/05/26 01:04:28;;;;;;;9.10;6.20;;;;;;;;;;5073770;28;20188;-73
2023/05/26 01:07:00;;;;;;;9.43;6.77;;;;;;;;;;5077037;28;20184;-73
2023/05/26 01:09:32;;;;;;;9.47;7.27;;;;;;;;;;5077222;28;20174;-73
2023/05/26 01:12:05;;;;;;;7.83;6.77;;;;;;;;;;5083583;28;20220;-73
2023/05/26 01:14:35;;;;;;;10.60;8.00;;;;;;;;;;5089112;28;20184;-73
2023/05/26 01:17:11;;;;;;;9.63;7.00;;;;;;;;;;5079136;28;20200;-74
2023/05/26 01:19:42;;;;;;;8.97;7.40;;;;;;;;;;5088437;28;20207;-73
2023/05/26 01:22:22;;;;;;;8.60;7.13;;;;;;;;;;5079282;28;20181;-75
2023/05/26 01:25:01;;;;;;;9.53;7.23;;;;;;;;;;5080502;28;20168;-75
2023/05/26 01:27:45;;;;;;;10.87;7.33;;;;;;;;;;5081572;28;20207;-73
2023/05/26 01:30:15;;;;;;;8.80;6.70;;;;;;;;;;5092753;28;20179;-74
2023/05/26 01:32:52;;;;;;;9.80;6.93;;;;;;;;;;5083791;28;20172;-73
2023/05/26 01:35:18;;;;;;;11.80;6.90;;;;;;;;;;5082179;28;20197;-73
2023/05/26 01:37:46;;;;;;;8.93;6.73;;;;;;;;;;5080841;28;20725;-73
2023/05/26 01:40:13;;;;;;;10.80;6.83;;;;;;;;;;5066937;28;20173;-74
2023/05/26 01:42:46;;;;;;;10.67;6.93;;;;;;;;;;5077524;28;20572;-73
2023/05/26 01:45:15;;;;;;;11.10;7.43;;;;;;;;;;5075690;28;20165;-73
2023/05/26 01:47:44;;;;;;;8.50;7.07;;;;;;;;;;5077340;28;20193;-73
2023/05/26 01:50:12;;;;;;;10.57;7.57;;;;;;;;;;5065223;28;20655;-74
2023/05/26 01:52:42;;;;;;;9.00;7.17;;;;;;;;;;5086019;28;20223;-73
2023/05/26 01:55:13;;;;;;;10.70;7.13;;;;;;;;;;5075772;28;20641;-73
2023/05/26 01:57:42;;;;;;;8.17;6.70;;;;;;;;;;5074657;28;20269;-73
2023/05/26 02:00:13;;;;;;;9.73;7.17;;;;;;;;;;5069259;28;20208;-73
2023/05/26 02:02:45;;;;;;;11.83;8.30;;;;;;;;;;5073082;28;20189;-73
2023/05/26 02:05:12;;;;;;;12.10;7.60;;;;;;;;;;5082685;28;20307;-73
2023/05/26 02:07:40;;;;;;;11.27;7.47;;;;;;;;;;5084008;28;20196;-73
2023/05/26 02:10:07;;;;;;;11.97;8.03;;;;;;;;;;5084727;28;20251;-73
2023/05/26 02:12:34;;;;;;;9.27;7.57;;;;;;;;;;5079911;28;20273;-73
2023/05/26 02:15:00;;;;;;;11.00;7.63;;;;;;;;;;5079391;28;20301;-73
2023/05/26 02:17:29;;;;;;;12.47;7.37;;;;;;;;;;5083652;28;20679;-73
2023/05/26 02:19:57;;;;;;;13.10;8.30;;;;;;;;;;5091249;28;20713;-73
2023/05/26 02:22:26;;;;;;;14.70;8.50;;;;;;;;;;5080813;28;20177;-73
2023/05/26 02:24:52;;;;;;;11.27;7.83;;;;;;;;;;5079872;28;20212;-73
2023/05/26 02:27:19;;;;;;;11.40;8.00;;;;;;;;;;5075690;28;20201;-73
2023/05/26 02:29:46;;;;;;;11.63;7.50;;;;;;;;;;5084838;28;20526;-73
2023/05/26 02:32:13;;;;;;;12.93;7.90;;;;;;;;;;5080644;28;20516;-73
2023/05/26 02:34:42;;;;;;;13.00;8.10;;;;;;;;;;5087813;28;20727;-73
2023/05/26 02:37:09;;;;;;;9.87;7.30;;;;;;;;;;5091234;28;21748;-73
2023/05/26 02:39:35;;;;;;;10.07;7.67;;;;;;;;;;5091477;28;20646;-73
2023/05/26 02:42:01;;;;;;;8.70;7.27;;;;;;;;;;5078020;28;21731;-73
2023/05/26 02:44:34;;;;;;;10.13;7.67;;;;;;;;;;5082855;28;20180;-73
2023/05/26 02:47:01;;;;;;;8.13;6.60;;;;;;;;;;5078827;28;20614;-73
2023/05/26 02:49:28;;;;;;;11.10;7.73;;;;;;;;;;5085013;28;20181;-73
2023/05/26 02:51:54;;;;;;;9.80;7.67;;;;;;;;;;5067129;28;20177;-73
2023/05/26 02:54:21;;;;;;;11.10;7.40;;;;;;;;;;5078175;28;20181;-73
2023/05/26 02:56:48;;;;;;;10.97;7.77;;;;;;;;;;5081614;28;20177;-73
2023/05/26 02:59:18;;;;;;;10.50;7.80;;;;;;;;;;5066365;28;20661;-73
2023/05/26 03:01:45;;;;;;;12.40;7.53;;;;;;;;;;5083861;28;20196;-73
2023/05/26 03:04:15;;;;;;;11.07;7.53;;;;;;;;;;5082688;28;20188;-73
2023/05/26 03:06:47;;;;;;;9.53;8.37;;;;;;;;;;5065377;28;20215;-73
2023/05/26 03:09:17;;;;;;;10.37;8.43;;;;;;;;;;5062584;28;20200;-73
2023/05/26 03:11:46;;;;;;;11.43;8.20;;;;;;;;;;5062520;28;20185;-73
2023/05/26 03:14:13;;;;;;;13.10;8.53;;;;;;;;;;5076588;28;20204;-73
2023/05/26 03:16:43;;;;;;;9.97;7.40;;;;;;;;;;5075738;28;20192;-73
2023/05/26 03:19:13;;;;;;;11.37;7.30;;;;;;;;;;5096773;27;20266;-74
2023/05/26 03:21:40;;;;;;;8.90;7.17;;;;;;;;;;5063624;28;20342;-72
2023/05/26 03:24:07;;;;;;;9.17;7.60;;;;;;;;;;5059995;28;20194;-73
2023/05/26 03:26:34;;;;;;;10.13;7.40;;;;;;;;;;5082157;28;20228;-73
2023/05/26 03:29:03;;;;;;;9.63;7.30;;;;;;;;;;5078370;28;20197;-73
2023/05/26 03:31:30;;;;;;;11.50;7.60;;;;;;;;;;5075392;28;20173;-73
2023/05/26 03:33:57;;;;;;;9.83;7.17;;;;;;;;;;5077765;28;20187;-73
2023/05/26 03:36:24;;;;;;;8.63;7.67;;;;;;;;;;5076963;28;20196;-73
2023/05/26 03:38:53;;;;;;;10.67;8.40;;;;;;;;;;5079124;28;20200;-73
2023/05/26 03:41:23;;;;;;;11.03;7.57;;;;;;;;;;5071576;28;20187;-73
2023/05/26 03:43:54;;;;;;;10.07;7.47;;;;;;;;;;5076981;28;20182;-73
2023/05/26 03:46:22;;;;;;;10.53;7.40;;;;;;;;;;5078317;28;20172;-73
2023/05/26 03:48:51;;;;;;;11.00;7.63;;;;;;;;;;5076542;28;20717;-73
2023/05/26 03:51:19;;;;;;;10.53;7.90;;;;;;;;;;5059272;28;20671;-73
2023/05/26 03:53:46;;;;;;;10.93;8.20;;;;;;;;;;5078393;28;20169;-73
2023/05/26 03:56:14;;;;;;;12.00;7.90;;;;;;;;;;5083076;28;20180;-73
2023/05/26 03:58:43;;;;;;;11.27;7.80;;;;;;;;;;5085868;28;20805;-73
2023/05/26 04:01:10;;;;;;;11.60;8.87;;;;;;;;;;5081684;28;20239;-73
2023/05/26 04:03:36;;;;;;;10.47;7.70;;;;;;;;;;5078468;28;20272;-72
2023/05/26 04:06:03;;;;;;;10.00;7.70;;;;;;;;;;5075825;28;20185;-73
2023/05/26 04:08:30;;;;;;;10.63;7.67;;;;;;;;;;5075723;28;20209;-73
2023/05/26 04:10:57;;;;;;;11.67;8.30;;;;;;;;;;5085240;28;20195;-73
2023/05/26 04:13:29;;;;;;;12.23;8.10;;;;;;;;;;5085497;28;20213;-73
2023/05/26 04:15:58;;;;;;;13.60;8.63;;;;;;;;;;5074762;28;20192;-73
2023/05/26 04:18:25;;;;;;;12.03;8.20;;;;;;;;;;5069525;28;20545;-73
2023/05/26 04:20:59;;;;;;;11.37;8.43;;;;;;;;;;5080709;28;20184;-73
2023/05/26 04:23:26;;;;;;;9.57;8.20;;;;;;;;;;5077271;28;20267;-72
2023/05/26 04:25:55;;;;;;;12.37;8.50;;;;;;;;;;5076524;28;20184;-72
2023/05/26 04:28:57;;;;;;;14.93;9.13;;;;;;;;;;5073638;28;20856;-72
2023/05/26 04:31:44;;;;;;;10.63;8.37;;;;;;;;;;5076749;28;20678;-72
2023/05/26 04:34:21;;;;;;;14.07;9.67;;;;;;;;;;5079139;28;20648;-73
2023/05/26 04:36:49;;;;;;;14.37;8.77;;;;;;;;;;5079761;28;20184;-73
2023/05/26 04:39:18;;;;;;;13.27;9.27;;;;;;;;;;5077043;28;20582;-73
2023/05/26 04:41:49;;;;;;;12.47;9.10;;;;;;;;;;5074007;28;20181;-72
2023/05/26 04:44:22;;;;;;;12.90;8.77;;;;;;;;;;5080741;28;20570;-74
2023/05/26 04:46:49;;;;;;;11.57;8.50;;;;;;;;;;5085022;28;20172;-73
2023/05/26 04:49:24;;;;;;;12.50;8.43;;;;;;;;;;5089670;28;20234;-72
2023/05/26 04:51:55;;;;;;;11.60;8.63;;;;;;;;;;5078417;28;20243;-73
2023/05/26 04:54:24;;;;;;;12.47;8.73;;;;;;;;;;5087753;28;20235;-73
2023/05/26 04:56:53;;;;;;;10.83;8.63;;;;;;;;;;5080335;28;20176;-73
2023/05/26 04:59:23;;;;;;;12.33;8.67;;;;;;;;;;5108406;28;20199;-73
2023/05/26 05:01:49;;;;;;;10.47;8.37;;;;;;;;;;5092705;28;20218;-73
2023/05/26 05:04:42;;;;;;;12.53;9.17;;;;;;;;;;5084305;28;20252;-73
2023/05/26 05:07:08;;;;;;;11.30;8.73;;;;;;;;;;5070445;28;20219;-73
2023/05/26 05:09:38;;;;;;;19.53;9.53;;;;;;;;;;5090364;28;20188;-73
2023/05/26 05:12:12;;;;;;;12.90;9.10;;;;;;;;;;5085942;28;20214;-73
2023/05/26 05:14:38;;;;;;;12.60;8.60;;;;;;;;;;5086727;28;20180;-75
2023/05/26 05:17:05;;;;;;;10.47;8.80;;;;;;;;;;5096875;28;20180;-74
2023/05/26 05:19:33;;;;;;;13.57;8.80;;;;;;;;;;5099004;28;20215;-76
2023/05/26 05:22:05;;;;;;;11.70;8.83;;;;;;;;;;5088061;28;20181;-73
2023/05/26 05:24:32;;;;;;;12.67;8.87;;;;;;;;;;5069698;28;20181;-74
2023/05/26 05:27:00;;;;;;;12.70;8.97;;;;;;;;;;5084791;28;20184;-76
2023/05/26 05:29:29;;;;;;;10.53;8.70;;;;;;;;;;5080614;28;20175;-74
2023/05/26 05:31:59;;;;;;;10.33;8.40;;;;;;;;;;5072653;28;20180;-74
2023/05/26 05:34:28;;;;;;;13.53;8.43;;;;;;;;;;5088160;28;20568;-75
2023/05/26 05:36:58;;;;;;;10.67;7.93;;;;;;;;;;5103299;28;20622;-74
2023/05/26 05:39:27;;;;;;;14.20;8.50;;;;;;;;;;5102352;28;20623;-74
2023/05/26 05:41:53;;;;;;;12.40;8.53;;;;;;;;;;5084473;28;20233;-74
2023/05/26 05:44:22;;;;;;;12.47;8.40;;;;;;;;;;5109672;28;20290;-74
2023/05/26 05:46:51;;;;;;;10.07;7.67;;;;;;;;;;5111274;28;20168;-74
2023/05/26 05:49:25;;;;;;;11.50;7.93;;;;;;;;;;5092243;28;20188;-74
2023/05/26 05:51:56;;;;;;;10.40;7.73;;;;;;;;;;5100265;28;20229;-74
2023/05/26 05:54:25;;;;;;;12.73;7.60;;;;;;;;;;5095677;28;20257;-74
2023/05/26 05:56:54;;;;;;;13.43;8.60;;;;;;;;;;5069524;28;20656;-75
2023/05/26 05:59:21;;;;;;;10.73;7.63;;;;;;;;;;5076125;28;20358;-74
2023/05/26 06:01:47;;;;;;;13.10;8.10;;;;;;;;;;5077889;28;20543;-75
2023/05/26 06:04:14;;;;;;;11.73;8.40;;;;;;;;;;5097240;28;20178;-74
2023/05/26 06:06:44;;;;;;;12.93;8.60;;;;;;;;;;5110125;28;20544;-74
2023/05/26 06:09:16;;;;;;;10.60;7.90;;;;;;;;;;5092008;28;20212;-74
2023/05/26 06:11:46;;;;;;;11.60;7.80;;;;;;;;;;5113651;28;20183;-74
2023/05/26 06:14:15;;;;;;;10.63;8.10;;;;;;;;;;5093123;28;20189;-74
2023/05/26 06:16:41;;;;;;;11.53;7.70;;;;;;;;;;5090541;28;20201;-74
2023/05/26 06:19:08;;;;;;;15.60;7.53;;;;;;;;;;5084596;28;20236;-74
2023/05/26 06:21:37;;;;;;;11.93;8.13;;;;;;;;;;5074282;28;20195;-75
2023/05/26 06:24:04;;;;;;;13.27;7.57;;;;;;;;;;5095077;28;20222;-76
2023/05/26 06:26:37;;;;;;;13.83;7.83;;;;;;;;;;5090897;28;20745;-75
2023/05/26 06:29:10;;;;;;;10.87;6.70;;;;;;;;;;5089060;28;21131;-75
2023/05/26 06:31:40;;;;;;;12.13;8.00;;;;;;;;;;5093418;28;20253;-74
2023/05/26 06:34:13;;;;;;;11.80;7.57;;;;;;;;;;5097287;28;20182;-74
2023/05/26 06:36:50;;;;;;;11.37;7.37;;;;;;;;;;5100443;28;20253;-74
2023/05/26 06:39:20;;;;;;;13.63;7.70;;;;;;;;;;5092721;28;20216;-74
2023/05/26 06:41:46;;;;;;;8.73;7.00;;;;;;;;;;5090968;28;20177;-74
2023/05/26 06:44:24;;;;;;;10.37;7.00;;;;;;;;;;5091848;28;20175;-74
2023/05/26 06:46:50;;;;;;;9.50;6.87;;;;;;;;;;5081185;28;20192;-74
2023/05/26 06:49:26;;;;;;;10.47;7.10;;;;;;;;;;5100118;28;20181;-74
2023/05/26 06:52:00;;;;;;;10.13;7.30;;;;;;;;;;5101189;28;20189;-75
2023/05/26 06:54:26;;;;;;;10.07;7.70;;;;;;;;;;5100798;28;20199;-74
2023/05/26 06:56:54;;;;;;;11.83;7.53;;;;;;;;;;5092584;28;20178;-74
2023/05/26 06:59:28;;;;;;;12.73;7.20;;;;;;;;;;5091464;28;20208;-74
2023/05/26 07:01:57;;;;;;;12.23;7.60;;;;;;;;;;5092704;28;20644;-74
2023/05/26 07:04:24;;;;;;;10.57;6.90;;;;;;;;;;5098904;28;20215;-74
2023/05/26 07:06:52;;;;;;;13.80;7.90;;;;;;;;;;5085960;28;20196;-74
2023/05/26 07:09:21;;;;;;;9.93;6.80;;;;;;;;;;5103824;28;20190;-74
2023/05/26 07:11:58;;;;;;;13.53;7.53;;;;;;;;;;5109963;27;20630;-75
2023/05/26 07:14:49;;;;;;;10.47;6.83;;;;;;;;;;5096740;28;20210;-75
2023/05/26 07:17:18;;;;;;;11.67;6.83;;;;;;;;;;5081349;28;20298;-74
2023/05/26 07:19:52;;;;;;;14.50;7.20;;;;;;;;;;5090561;28;20750;-74
2023/05/26 07:22:21;;;;;;;10.73;7.30;;;;;;;;;;5095457;28;20617;-74
2023/05/26 07:25:03;;;;;;;9.23;6.83;;;;;;;;;;5081389;28;20181;-74
2023/05/26 07:27:49;;;;;;;9.67;6.50;;;;;;;;;;5085215;28;20207;-74
2023/05/26 07:30:27;;;;;;;10.80;6.90;;;;;;;;;;5080598;28;20200;-74
2023/05/26 07:33:05;;;;;;;11.57;7.10;;;;;;;;;;5097333;28;20183;-74
2023/05/26 07:35:32;;;;;;;11.73;6.80;;;;;;;;;;5096758;28;20323;-74
2023/05/26 07:38:02;;;;;;;10.67;7.10;;;;;;;;;;5074627;28;20846;-77
2023/05/26 07:40:34;;;;;;;12.47;7.30;;;;;;;;;;5093244;28;20222;-77
2023/05/26 07:43:08;;;;;;;9.60;6.50;;;;;;;;;;5091680;28;20183;-74
2023/05/26 07:45:37;;;;;;;10.07;6.83;;;;;;;;;;5098019;28;20187;-74
2023/05/26 07:48:03;;;;;;;14.63;6.70;;;;;;;;;;5104680;28;20198;-74
2023/05/26 07:50:31;;;;;;;11.23;7.13;;;;;;;;;;5093817;28;20196;-74
2023/05/26 07:52:58;;;;;;;10.97;6.73;;;;;;;;;;5109024;27;20167;-74
2023/05/26 07:55:38;;;;;;;10.80;7.10;;;;;;;;;;5095872;28;20200;-74
2023/05/26 07:58:05;;;;;;;12.07;6.83;;;;;;;;;;5109493;28;20200;-74
2023/05/26 08:00:34;;;;;;;9.07;6.53;;;;;;;;;;5098869;28;20192;-74
2023/05/26 08:03:06;;;;;;;12.07;6.70;;;;;;;;;;5095975;28;20177;-74
2023/05/26 08:05:32;;;;;;;8.83;6.30;;;;;;;;;;5099669;28;20690;-74
2023/05/26 08:08:01;;;;;;;9.57;6.57;;;;;;;;;;5074080;28;20197;-74
2023/05/26 08:10:30;;;;;;;9.57;6.67;;;;;;;;;;5098200;28;20269;-74
2023/05/26 08:12:57;;;;;;;10.07;6.60;;;;;;;;;;5082578;28;20177;-74
2023/05/26 08:15:24;;;;;;;9.10;6.30;;;;;;;;;;5080786;28;20648;-74
2023/05/26 08:17:51;;;;;;;9.07;6.60;;;;;;;;;;5090234;28;20210;-75
2023/05/26 08:20:17;;;;;;;9.43;6.60;;;;;;;;;;5092627;28;20212;-75
2023/05/26 08:22:51;;;;;;;12.23;7.33;;;;;;;;;;5095806;28;20183;-74
2023/05/26 08:25:18;;;;;;;11.90;6.97;;;;;;;;;;5087114;28;20192;-74
2023/05/26 08:27:47;;;;;;;11.43;6.67;;;;;;;;;;5094361;28;20919;-74
2023/05/26 08:30:13;;;;;;;9.57;6.80;;;;;;;;;;5092559;28;20190;-74
2023/05/26 08:32:40;;;;;;;9.17;6.53;;;;;;;;;;5075390;28;20184;-74
2023/05/26 08:35:09;;;;;;;10.37;5.83;;;;;;;;;;5082599;28;20253;-74
2023/05/26 08:37:41;;;;;;;8.70;6.00;;;;;;;;;;5096434;28;20208;-74
2023/05/26 08:40:09;;;;;;;9.23;6.37;;;;;;;;;;5098210;28;20226;-74
2023/05/26 08:42:42;;;;;;;9.07;6.20;;;;;;;;;;5099655;28;20199;-75
2023/05/26 08:45:14;;;;;;;10.10;6.70;;;;;;;;;;5081778;28;20241;-74
2023/05/26 08:47:48;;;;;;;10.57;6.90;;;;;;;;;;5098214;28;20231;-74
2023/05/26 08:50:19;;;;;;;11.77;6.70;;;;;;;;;;5078958;28;20185;-75
2023/05/26 08:52:48;;;;;;;7.83;6.10;;;;;;;;;;5090504;28;20178;-74
2023/05/26 08:55:24;;;;;;;11.83;6.57;;;;;;;;;;5103977;28;20194;-75
2023/05/26 08:57:59;;;;;;;9.83;6.30;;;;;;;;;;5105541;28;20196;-74
2023/05/26 09:00:32;;;;;;;9.53;6.40;;;;;;;;;;5066758;28;20230;-74
2023/05/26 09:03:01;;;;;;;12.40;6.57;;;;;;;;;;5088304;28;20231;-72
2023/05/26 09:05:30;;;;;;;8.40;5.70;;;;;;;;;;5076580;28;20189;-75
2023/05/26 09:07:57;;;;;;;9.47;6.13;;;;;;;;;;5078484;28;20237;-75
2023/05/26 09:10:40;;;;;;;9.33;6.50;;;;;;;;;;5116058;27;20213;-74
2023/05/26 09:13:08;;;;;;;10.30;6.00;;;;;;;;;;5101872;28;20195;-74
2023/05/26 09:15:36;;;;;;;9.33;6.20;;;;;;;;;;5091264;28;20192;-75
2023/05/26 09:18:13;;;;;;;10.77;6.07;;;;;;;;;;5091370;28;20281;-75
2023/05/26 09:20:50;;;;;;;7.93;5.30;;;;;;;;;;5093340;28;20225;-74
2023/05/26 09:23:22;;;;;;;11.03;6.00;;;;;;;;;;5091895;28;20271;-74
2023/05/26 09:25:52;;;;;;;11.30;5.87;;;;;;;;;;5103239;28;20204;-74
2023/05/26 09:28:23;;;;;;;10.83;5.60;;;;;;;;;;5099386;28;20282;-75
2023/05/26 09:30:50;;;;;;;7.70;5.73;;;;;;;;;;5093887;28;20177;-75
2023/05/26 09:33:17;;;;;;;12.33;5.97;;;;;;;;;;5073642;28;20274;-75
2023/05/26 09:35:52;;;;;;;7.77;5.40;;;;;;;;;;5082251;28;20188;-76
2023/05/26 09:38:22;;;;;;;9.93;5.70;;;;;;;;;;5097296;28;20199;-75
2023/05/26 09:40:51;;;;;;;7.67;5.13;;;;;;;;;;5086247;28;20184;-75
2023/05/26 09:43:20;;;;;;;8.33;5.70;;;;;;;;;;5099464;28;20160;-75
2023/05/26 09:45:47;;;;;;;8.53;5.43;;;;;;;;;;5094523;28;20553;-75
2023/05/26 09:48:14;;;;;;;9.70;5.40;;;;;;;;;;5092971;28;20260;-74
2023/05/26 09:50:41;;;;;;;9.07;5.23;;;;;;;;;;5092583;28;20675;-75
2023/05/26 09:53:18;;;;;;;7.67;5.27;;;;;;;;;;5075521;28;20191;-75
2023/05/26 09:56:00;;;;;;;;;;;;;;;;;;;;;
2023/05/26 09:58:28;;;;;;;9.40;5.50;;;;;;;;;;5096022;28;20208;-75
2023/05/26 10:00:55;;;;;;;7.10;5.30;;;;;;;;;;5094848;28;20639;-75
2023/05/26 10:03:29;;;;;;;8.80;5.20;;;;;;;;;;5091873;28;20177;-75
2023/05/26 10:05:56;;;;;;;12.67;5.30;;;;;;;;;;5093969;28;20215;-75
2023/05/26 10:08:28;;;;;;;6.87;4.83;;;;;;;;;;5091194;28;20255;-75
2023/05/26 10:10:55;;;;;;;8.93;5.47;;;;;;;;;;5099813;28;20176;-75
2023/05/26 10:13:25;;;;;;;8.60;5.60;;;;;;;;;;5094529;28;20184;-75
2023/05/26 10:15:52;;;;;;;11.27;5.60;;;;;;;;;;5109235;28;20179;-75
2023/05/26 10:18:21;;;;;;;8.37;6.23;;;;;;;;;;5087234;28;20322;-75
2023/05/26 10:20:49;;;;;;;8.10;5.20;;;;;;;;;;5097263;28;20172;-75
2023/05/26 10:23:31;;;;;;;10.00;5.50;;;;;;;;;;5088962;28;20181;-75
2023/05/26 10:26:11;;;;;;;8.67;5.63;;;;;;;;;;5076600;28;20177;-75
2023/05/26 10:28:44;;;;;;;10.23;5.13;;;;;;;;;;5076001;28;20262;-75
2023/05/26 10:31:28;;;;;;;11.33;5.60;;;;;;;;;;5103576;28;20192;-75
2023/05/26 10:33:55;;;;;;;7.27;4.90;;;;;;;;;;5114098;28;20175;-75
2023/05/26 10:36:37;;;;;;;5.93;4.80;;;;;;;;;;5085586;28;20240;-76
2023/05/26 10:39:09;;;;;;;7.67;5.30;;;;;;;;;;5090439;28;20624;-76
2023/05/26 10:41:38;;;;;;;8.60;4.67;;;;;;;;;;5095372;28;20192;-75
2023/05/26 10:44:29;;;;;;;7.07;4.83;;;;;;;;;;5101101;28;20180;-75
2023/05/26 10:47:05;;;;;;;6.83;4.87;;;;;;;;;;5108548;28;20548;-75
2023/05/26 10:49:35;;;;;;;7.67;4.90;;;;;;;;;;5099772;28;20199;-75
2023/05/26 10:52:11;;;;;;;21.80;6.20;;;;;;;;;;5114268;28;20184;-75
2023/05/26 10:54:38;;;;;;;10.10;5.27;;;;;;;;;;5099022;28;20191;-75
2023/05/26 10:57:08;;;;;;;8.27;5.03;;;;;;;;;;5108929;28;20188;-75
2023/05/26 10:59:36;;;;;;;7.93;4.93;;;;;;;;;;5106291;28;20271;-75
2023/05/26 11:02:04;;;;;;;8.23;5.50;;;;;;;;;;5110171;28;20191;-76
2023/05/26 11:04:41;;;;;;;8.03;5.00;;;;;;;;;;5087147;28;20247;-76
2023/05/26 11:07:21;;;;;;;8.40;5.10;;;;;;;;;;5108437;28;20180;-77
2023/05/26 11:10:08;;;;;;;8.27;5.13;;;;;;;;;;5096045;28;20849;-78
2023/05/26 11:12:50;;;;;;;10.73;5.10;;;;;;;;;;5080132;28;20180;-76
2023/05/26 11:15:26;;;;;;;7.47;4.80;;;;;;;;;;5092604;28;20202;-76
2023/05/26 11:18:06;;;;;;;8.60;4.90;;;;;;;;;;5105506;28;20741;-77
2023/05/26 11:20:33;;;;;;;6.97;4.70;;;;;;;;;;5101401;28;20209;-76
2023/05/26 11:23:06;;;;;;;8.13;4.97;;;;;;;;;;5089655;28;20243;-77
2023/05/26 11:25:46;;;;;;;9.00;4.83;;;;;;;;;;5104354;28;20181;-77
2023/05/26 11:28:18;;;;;;;6.17;4.97;;;;;;;;;;5096133;28;20221;-76
2023/05/26 11:30:45;;;;;;;8.10;4.83;;;;;;;;;;5091883;28;20159;-76
2023/05/26 11:33:15;;;;;;;9.80;4.87;;;;;;;;;;5092565;28;20179;-76
2023/05/26 11:35:42;;;;;;;9.27;4.90;;;;;;;;;;5097536;28;20195;-75
2023/05/26 11:38:09;;;;;;;6.63;4.93;;;;;;;;;;5093402;28;20269;-76
2023/05/26 11:40:42;;;;;;;9.83;5.20;;;;;;;;;;5096254;28;20229;-77
2023/05/26 11:43:12;;;;;;;9.67;5.30;;;;;;;;;;5093771;28;20194;-75
2023/05/26 11:45:42;;;;;;;7.70;5.47;;;;;;;;;;5093320;28;20651;-76
2023/05/26 11:48:08;;;;;;;7.17;4.50;;;;;;;;;;5078390;28;20293;-76
2023/05/26 11:50:35;;;;;;;7.57;4.90;;;;;;;;;;5094897;28;20651;-78
2023/05/26 11:53:04;;;;;;;8.60;5.10;;;;;;;;;;5093584;28;20217;-76
2023/05/26 11:55:35;;;;;;;7.30;4.80;;;;;;;;;;5097357;28;20655;-76
2023/05/26 11:58:04;;;;;;;9.07;4.90;;;;;;;;;;5107632;28;20204;-76
2023/05/26 12:00:34;;;;;;;6.10;4.43;;;;;;;;;;5094334;28;20226;-76
2023/05/26 12:03:04;;;;;;;10.43;4.93;;;;;;;;;;5079636;28;20188;-75
2023/05/26 12:05:40;;;;;;;7.27;4.60;;;;;;;;;;5087836;28;20187;-75
2023/05/26 12:08:11;;;;;;;7.00;4.93;;;;;;;;;;5087362;28;20215;-75
2023/05/26 12:10:50;;;;;;;4.90;4.20;;;;;;;;;;5096326;28;20306;-75
2023/05/26 12:13:17;;;;;;;8.50;4.20;;;;;;;;;;5085936;28;20242;-76
2023/05/26 12:15:52;;;;;;;4.93;4.40;;;;;;;;;;5077189;28;20183;-75
2023/05/26 12:18:22;;;;;;;8.30;4.47;;;;;;;;;;5089288;28;20215;-75
2023/05/26 12:20:49;;;;;;;6.90;4.47;;;;;;;;;;5100030;28;20268;-74
2023/05/26 12:23:26;;;;;;;6.27;4.23;;;;;;;;;;5089033;28;20177;-77
2023/05/26 12:25:53;;;;;;;7.77;4.33;;;;;;;;;;5086268;28;20180;-79
2023/05/26 12:28:20;;;;;;;7.43;4.10;;;;;;;;;;5089556;28;20284;-77
2023/05/26 12:30:46;;;;;;;8.20;4.73;;;;;;;;;;5097974;28;20333;-77
2023/05/26 12:33:13;;;;;;;5.93;4.30;;;;;;;;;;5109036;28;20840;-77
2023/05/26 12:35:49;;;;;;;6.67;4.20;;;;;;;;;;5086267;28;20227;-77
2023/05/26 12:38:16;;;;;;;6.53;4.20;;;;;;;;;;5093653;28;20307;-78
2023/05/26 12:40:42;;;;;;;6.10;4.50;;;;;;;;;;5089968;28;20676;-77
2023/05/26 12:43:11;;;;;;;7.83;4.57;;;;;;;;;;5077905;28;20549;-77
2023/05/26 12:45:38;;;;;;;6.13;4.40;;;;;;;;;;5086768;28;20179;-77
2023/05/26 12:48:08;;;;;;;6.97;4.20;;;;;;;;;;5082883;28;20204;-78
2023/05/26 12:50:37;;;;;;;5.90;4.20;;;;;;;;;;5108610;28;20182;-78
2023/05/26 12:53:06;;;;;;;6.53;4.20;;;;;;;;;;5071298;28;20215;-77
2023/05/26 12:55:32;;;;;;;6.40;4.30;;;;;;;;;;5086250;28;20663;-77
2023/05/26 12:57:59;;;;;;;4.57;4.10;;;;;;;;;;5102720;27;20290;-77
2023/05/26 13:00:28;;;;;;;7.57;4.30;;;;;;;;;;5091470;28;20216;-77
2023/05/26 13:02:54;;;;;;;5.17;3.90;;;;;;;;;;5095111;28;20429;-80
2023/05/26 13:05:23;;;;;;;7.00;4.13;;;;;;;;;;5082937;28;20172;-78
2023/05/26 13:07:49;;;;;;;7.77;4.30;;;;;;;;;;5099898;28;20254;-77
2023/05/26 13:10:17;;;;;;;7.50;4.40;;;;;;;;;;5095967;28;20257;-78
2023/05/26 13:12:44;;;;;;;7.33;4.37;;;;;;;;;;5079566;28;20216;-77
2023/05/26 13:15:12;;;;;;;7.00;4.40;;;;;;;;;;5083958;28;20272;-79
2023/05/26 13:17:41;;;;;;;5.97;4.37;;;;;;;;;;5088348;28;20293;-79
2023/05/26 13:20:11;;;;;;;6.33;3.83;;;;;;;;;;5094720;28;20195;-80
2023/05/26 13:22:44;;;;;;;6.17;4.27;;;;;;;;;;5079793;28;20182;-79
2023/05/26 13:25:12;;;;;;;6.93;4.10;;;;;;;;;;5087411;28;20278;-80
2023/05/26 13:27:39;;;;;;;6.07;4.40;;;;;;;;;;5097612;28;20685;-79
2023/05/26 13:30:06;;;;;;;5.77;4.13;;;;;;;;;;5081532;28;20265;-79
2023/05/26 13:32:36;;;;;;;5.63;4.10;;;;;;;;;;5075958;28;20189;-80
2023/05/26 13:35:03;;;;;;;6.10;4.40;;;;;;;;;;5088632;28;20175;-78
2023/05/26 13:37:30;;;;;;;5.47;4.00;;;;;;;;;;5086664;28;20215;-79
2023/05/26 13:39:56;;;;;;;5.37;3.90;;;;;;;;;;5080684;28;20241;-79
2023/05/26 13:42:25;;;;;;;4.40;3.73;;;;;;;;;;5091008;28;20267;-79
2023/05/26 13:44:52;;;;;;;7.70;3.90;;;;;;;;;;5097020;28;20175;-79
2023/05/26 13:47:23;;;;;;;5.60;3.90;;;;;;;;;;5087669;28;20202;-79
2023/05/26 13:49:50;;;;;;;9.90;4.07;;;;;;;;;;5084588;28;20176;-80
2023/05/26 13:52:16;;;;;;;4.90;4.20;;;;;;;;;;5072015;28;20195;-78
2023/05/26 13:54:45;;;;;;;8.93;4.07;;;;;;;;;;5095996;28;20269;-79
2023/05/26 13:57:12;;;;;;;7.10;3.90;;;;;;;;;;5093417;28;20196;-79
2023/05/26 13:59:39;;;;;;;5.20;4.40;;;;;;;;;;5066703;28;20235;-79
2023/05/26 14:02:06;;;;;;;6.80;4.50;;;;;;;;;;5085196;28;20297;-79
2023/05/26 14:04:33;;;;;;;5.03;4.00;;;;;;;;;;5078497;28;20189;-79
2023/05/26 14:07:02;;;;;;;6.13;4.20;;;;;;;;;;5091677;28;20177;-79
2023/05/26 14:09:29;;;;;;;6.63;4.03;;;;;;;;;;5098712;28;20199;-79
2023/05/26 14:11:56;;;;;;;7.57;3.93;;;;;;;;;;5090562;28;20223;-79
2023/05/26 14:14:24;;;;;;;4.97;3.73;;;;;;;;;;5088693;28;20189;-79
2023/05/26 14:16:52;;;;;;;7.87;4.30;;;;;;;;;;5093362;28;20185;-79
2023/05/26 14:19:19;;;;;;;5.27;3.50;;;;;;;;;;5085909;28;20879;-79
2023/05/26 14:21:47;;;;;;;4.57;3.87;;;;;;;;;;5089844;28;20178;-79
2023/05/26 14:24:17;;;;;;;6.10;3.80;;;;;;;;;;5093785;28;20187;-79
2023/05/26 14:26:44;;;;;;;5.87;3.70;;;;;;;;;;5092223;28;20175;-79
2023/05/26 14:29:12;;;;;;;4.43;3.40;;;;;;;;;;5102073;28;20204;-79
2023/05/26 14:31:40;;;;;;;4.43;3.90;;;;;;;;;;5095990;28;20195;-79
2023/05/26 14:34:09;;;;;;;6.20;4.13;;;;;;;;;;5088445;28;20882;-78
2023/05/26 14:36:36;;;;;;;5.47;4.10;;;;;;;;;;5088285;28;20271;-78
2023/05/26 14:39:10;;;;;;;4.40;3.67;;;;;;;;;;5086983;28;20570;-79
2023/05/26 14:41:37;;;;;;;5.10;3.83;;;;;;;;;;5096266;28;20193;-78
2023/05/26 14:44:03;;;;;;;6.90;3.63;;;;;;;;;;5085512;28;20175;-77
2023/05/26 14:46:30;;;;;;;5.57;3.80;;;;;;;;;;5092443;28;20190;-80
2023/05/26 14:48:59;;;;;;;5.53;4.10;;;;;;;;;;5088839;28;20284;-78
2023/05/26 14:51:29;;;;;;;4.57;3.73;;;;;;;;;;5096297;28;20201;-78
2023/05/26 14:53:55;;;;;;;4.57;3.70;;;;;;;;;;5089610;28;20223;-77